Terminal Aerodrome Forecast
Issued by NWS Corpus Christi, TX

Home | Current Version | Previous Version | Text Only | Print | Product List | Glossary On
Versions: 1 2 3 4 5 6 7 8 9 10 11 12 13 14 15 16 17 18
546
FTUS44 KCRP 282328
TAFVCT
TAF
KVCT 282328Z 2900/2924 14019G27KT P6SM BKN015 OVC025
      TEMPO 2900/2902 SCT015 BKN025
     FM290500 15015KT P6SM VCSH SCT008 OVC012
     FM291000 17010KT 6SM BR VCTS BKN010CB OVC030
      TEMPO 2912/2916 VRB20G35KT 2SM +TSRA BKN008CB OVC020
     FM291700 26007KT P6SM SCT050 BKN250=

USA.gov is the U.S. government's official web portal to all federal, state and local government web resources and services.